YRTXU LRIA-LRIA
Flight info
| Callsign | YRTXU |
|---|---|
| Flight time | 0h 15m |
| Altitude | 1500 |
| Route | TFC PATTERNS |
| Aircraft | C182/L-SDGRY/S |
Departure
| Time | 2026-04-25 17:25 |
|---|---|
| Airport | Iaşi International Airport (LRIA) |
Arrival
| Time | 2026-04-25 17:40 |
|---|---|
| Airport | Iaşi International Airport (LRIA) |
| Time | Latitude | Longitude | Altitude | Speed | Heading |
|---|---|---|---|---|---|
| 2026-04-25 17:15 | 47.17756 | 27.61810 | 371 ft | 0 kts | 274° |
| 2026-04-25 17:22 | 47.17756 | 27.61808 | 371 ft | 2 kts | 273° |
| 2026-04-25 17:22 | 47.17750 | 27.61898 | 369 ft | 13 kts | 90° |
| 2026-04-25 17:22 | 47.17771 | 27.61973 | 369 ft | 5 kts | 64° |
| 2026-04-25 17:23 | 47.17775 | 27.61984 | 369 ft | 0 kts | 63° |
| 2026-04-25 17:23 | 47.17782 | 27.62003 | 369 ft | 6 kts | 63° |
| 2026-04-25 17:23 | 47.17812 | 27.62094 | 368 ft | 14 kts | 65° |
| 2026-04-25 17:24 | 47.17850 | 27.62241 | 366 ft | 13 kts | 97° |
| 2026-04-25 17:24 | 47.17826 | 27.62266 | 364 ft | 0 kts | 147° |
| 2026-04-25 17:24 | 47.17810 | 27.62281 | 363 ft | 18 kts | 148° |
| 2026-04-25 17:24 | 47.17522 | 27.62537 | 363 ft | 75 kts | 150° |
| 2026-04-25 17:25 | 47.17196 | 27.62840 | 491 ft | 86 kts | 149° |
| 2026-04-25 17:25 | 47.16538 | 27.63510 | 987 ft | 85 kts | 146° |
| 2026-04-25 17:25 | 47.16255 | 27.64221 | 1350 ft | 88 kts | 91° |
| 2026-04-25 17:25 | 47.16656 | 27.65140 | 1411 ft | 123 kts | 55° |
| 2026-04-25 17:26 | 47.17197 | 27.66171 | 1408 ft | 129 kts | 57° |
| 2026-04-25 17:26 | 47.17741 | 27.67224 | 1410 ft | 131 kts | 57° |
| 2026-04-25 17:26 | 47.18312 | 27.68281 | 1398 ft | 131 kts | 45° |
| 2026-04-25 17:26 | 47.19176 | 27.68614 | 1388 ft | 133 kts | 346° |
| 2026-04-25 17:27 | 47.19979 | 27.68007 | 1391 ft | 129 kts | 326° |
| 2026-04-25 17:27 | 47.20756 | 27.67361 | 1394 ft | 129 kts | 327° |
| 2026-04-25 17:27 | 47.21546 | 27.66718 | 1405 ft | 131 kts | 327° |
| 2026-04-25 17:27 | 47.21819 | 27.66496 | 1410 ft | 132 kts | 327° |
| 2026-04-25 17:28 | 47.23171 | 27.65390 | 1406 ft | 133 kts | 327° |
| 2026-04-25 17:28 | 47.23962 | 27.64707 | 1393 ft | 130 kts | 316° |
| 2026-04-25 17:28 | 47.24290 | 27.63596 | 1390 ft | 114 kts | 257° |
| 2026-04-25 17:28 | 47.23972 | 27.62588 | 1396 ft | 111 kts | 236° |
| 2026-04-25 17:29 | 47.23592 | 27.61571 | 1396 ft | 115 kts | 236° |
| 2026-04-25 17:29 | 47.23207 | 27.60530 | 1404 ft | 118 kts | 237° |
| 2026-04-25 17:29 | 47.22738 | 27.59552 | 1392 ft | 115 kts | 211° |
| 2026-04-25 17:29 | 47.21995 | 27.59332 | 1417 ft | 106 kts | 177° |
| 2026-04-25 17:30 | 47.21534 | 27.59379 | 1283 ft | 96 kts | 175° |
| 2026-04-25 17:30 | 47.20756 | 27.59728 | 993 ft | 84 kts | 157° |
| 2026-04-25 17:30 | 47.20242 | 27.60118 | 858 ft | 82 kts | 152° |
| 2026-04-25 17:30 | 47.19761 | 27.60544 | 734 ft | 79 kts | 149° |
| 2026-04-25 17:31 | 47.19294 | 27.60968 | 569 ft | 79 kts | 149° |
| 2026-04-25 17:31 | 47.18832 | 27.61374 | 426 ft | 76 kts | 152° |
| 2026-04-25 17:31 | 47.18435 | 27.61726 | 392 ft | 57 kts | 150° |
| 2026-04-25 17:31 | 47.18068 | 27.62052 | 393 ft | 81 kts | 150° |
| 2026-04-25 17:32 | 47.17537 | 27.62562 | 565 ft | 99 kts | 149° |
| 2026-04-25 17:32 | 47.16927 | 27.63148 | 770 ft | 111 kts | 149° |
| 2026-04-25 17:32 | 47.16263 | 27.63787 | 1053 ft | 116 kts | 149° |
| 2026-04-25 17:32 | 47.15592 | 27.64437 | 1331 ft | 116 kts | 149° |
| 2026-04-25 17:33 | 47.14997 | 27.65319 | 1393 ft | 134 kts | 116° |
| 2026-04-25 17:33 | 47.15099 | 27.66646 | 1389 ft | 135 kts | 62° |
| 2026-04-25 17:33 | 47.15656 | 27.67719 | 1392 ft | 128 kts | 56° |
| 2026-04-25 17:33 | 47.16189 | 27.68748 | 1387 ft | 127 kts | 57° |
| 2026-04-25 17:34 | 47.16719 | 27.69781 | 1392 ft | 125 kts | 57° |
| 2026-04-25 17:34 | 47.17361 | 27.70612 | 1381 ft | 127 kts | 18° |
| 2026-04-25 17:34 | 47.18192 | 27.70379 | 1388 ft | 123 kts | 326° |
| 2026-04-25 17:34 | 47.18932 | 27.69755 | 1393 ft | 125 kts | 327° |
| 2026-04-25 17:35 | 47.19442 | 27.69341 | 1397 ft | 126 kts | 327° |
| 2026-04-25 17:35 | 47.20473 | 27.68506 | 1401 ft | 127 kts | 327° |
| 2026-04-25 17:35 | 47.21248 | 27.67876 | 1399 ft | 126 kts | 327° |
| 2026-04-25 17:35 | 47.22017 | 27.67254 | 1402 ft | 126 kts | 327° |
| 2026-04-25 17:36 | 47.22779 | 27.66636 | 1399 ft | 127 kts | 327° |
| 2026-04-25 17:36 | 47.23552 | 27.66001 | 1408 ft | 127 kts | 327° |
| 2026-04-25 17:36 | 47.24315 | 27.65333 | 1401 ft | 127 kts | 317° |
| 2026-04-25 17:36 | 47.24636 | 27.64246 | 1388 ft | 116 kts | 257° |
| 2026-04-25 17:37 | 47.24307 | 27.63210 | 1391 ft | 110 kts | 235° |
| 2026-04-25 17:37 | 47.23944 | 27.62218 | 1392 ft | 110 kts | 237° |
| 2026-04-25 17:37 | 47.23580 | 27.61223 | 1389 ft | 112 kts | 237° |
| 2026-04-25 17:37 | 47.23209 | 27.60206 | 1400 ft | 114 kts | 237° |
| 2026-04-25 17:38 | 47.22828 | 27.59191 | 1396 ft | 108 kts | 232° |
| 2026-04-25 17:38 | 47.22688 | 27.58910 | 1349 ft | 99 kts | 226° |
| 2026-04-25 17:38 | 47.21806 | 27.58947 | 1078 ft | 75 kts | 157° |
| 2026-04-25 17:38 | 47.21338 | 27.59282 | 989 ft | 74 kts | 156° |
| 2026-04-25 17:39 | 47.20859 | 27.59641 | 910 ft | 79 kts | 154° |
| 2026-04-25 17:39 | 47.20367 | 27.60033 | 833 ft | 83 kts | 152° |
| 2026-04-25 17:39 | 47.20030 | 27.60315 | 768 ft | 83 kts | 149° |
| 2026-04-25 17:39 | 47.19549 | 27.60747 | 660 ft | 81 kts | 149° |
| 2026-04-25 17:40 | 47.19058 | 27.61178 | 505 ft | 82 kts | 149° |
| 2026-04-25 17:40 | 47.18591 | 27.61587 | 403 ft | 70 kts | 148° |
| 2026-04-25 17:40 | 47.18238 | 27.61900 | 386 ft | 43 kts | 148° |
| 2026-04-25 17:40 | 47.18020 | 27.62095 | 374 ft | 34 kts | 149° |
| 2026-04-25 17:41 | 47.17879 | 27.62204 | 367 ft | 14 kts | 184° |
| 2026-04-25 17:41 | 47.17828 | 27.62143 | 368 ft | 5 kts | 248° |
| 2026-04-25 17:41 | 47.17810 | 27.62086 | 368 ft | 7 kts | 242° |
| 2026-04-25 17:41 | 47.17781 | 27.62000 | 369 ft | 12 kts | 242° |
| 2026-04-25 17:42 | 47.17754 | 27.61856 | 370 ft | 10 kts | 276° |
| 2026-04-25 17:42 | 47.17756 | 27.61805 | 371 ft | 0 kts | 276° |